sensor_id;sensor_type;location;lat;lon;timestamp;pressure;altitude;pressure_sealevel;temperature;humidity
45255;BME280;30989;52.078;21.014;2023-04-01T00:00:18;165995.59;;;8.55;100.00
45255;BME280;30989;52.078;21.014;2023-04-01T00:02:43;165990.25;;;8.53;100.00
45255;BME280;30989;52.078;21.014;2023-04-01T00:05:09;165986.22;;;8.52;100.00
45255;BME280;30989;52.078;21.014;2023-04-01T00:07:36;165972.84;;;8.47;100.00
45255;BME280;30989;52.078;21.014;2023-04-01T00:10:03;165947.44;;;8.37;100.00
45255;BME280;30989;52.078;21.014;2023-04-01T00:12:28;165958.13;;;8.41;100.00
45255;BME280;30989;52.078;21.014;2023-04-01T00:14:54;165955.47;;;8.40;100.00
45255;BME280;30989;52.078;21.014;2023-04-01T00:17:20;165947.44;;;8.37;100.00
45255;BME280;30989;52.078;21.014;2023-04-01T00:19:46;165935.34;;;8.32;100.00
45255;BME280;30989;52.078;21.014;2023-04-01T00:22:12;165921.97;;;8.27;100.00
45255;BME280;30989;52.078;21.014;2023-04-01T00:24:38;165923.31;;;8.28;100.00
45255;BME280;30989;52.078;21.014;2023-04-01T00:27:04;165923.31;;;8.28;100.00
45255;BME280;30989;52.078;21.014;2023-04-01T00:29:29;165908.59;;;8.22;100.00
45255;BME280;30989;52.078;21.014;2023-04-01T00:31:57;165912.63;;;8.24;100.00
45255;BME280;30989;52.078;21.014;2023-04-01T00:34:22;165905.94;;;8.21;100.00
45255;BME280;30989;52.078;21.014;2023-04-01T00:36:52;165883.19;;;8.13;100.00
45255;BME280;30989;52.078;21.014;2023-04-01T00:39:22;165891.22;;;8.16;100.00
45255;BME280;30989;52.078;21.014;2023-04-01T00:41:47;165884.53;;;8.13;100.00
45255;BME280;30989;52.078;21.014;2023-04-01T00:46:44;165853.78;;;8.01;100.00
45255;BME280;30989;52.078;21.014;2023-04-01T00:49:10;165843.06;;;7.97;100.00
45255;BME280;30989;52.078;21.014;2023-04-01T00:51:36;165828.38;;;7.92;100.00
45255;BME280;30989;52.078;21.014;2023-04-01T00:54:04;165815.00;;;7.87;100.00
45255;BME280;30989;52.078;21.014;2023-04-01T00:56:34;165797.63;;;7.80;100.00
45255;BME280;30989;52.078;21.014;2023-04-01T00:59:04;165789.59;;;7.77;100.00
45255;BME280;30989;52.078;21.014;2023-04-01T01:01:34;165792.28;;;7.78;100.00
45255;BME280;30989;52.078;21.014;2023-04-01T01:04:01;165789.59;;;7.77;100.00
45255;BME280;30989;52.078;21.014;2023-04-01T01:09:31;165770.88;;;7.70;100.00
45255;BME280;30989;52.078;21.014;2023-04-01T01:12:04;165778.91;;;7.73;100.00
45255;BME280;30989;52.078;21.014;2023-04-01T01:25:45;165769.53;;;7.69;100.00
45255;BME280;30989;52.078;21.014;2023-04-01T01:31:02;165765.53;;;7.68;100.00
45255;BME280;30989;52.078;21.014;2023-04-01T01:33:48;165766.88;;;7.68;100.00
45255;BME280;30989;52.078;21.014;2023-04-01T01:36:17;165772.22;;;7.70;100.00
45255;BME280;30989;52.078;21.014;2023-04-01T01:38:44;165770.88;;;7.70;100.00
45255;BME280;30989;52.078;21.014;2023-04-01T01:41:13;165784.25;;;7.75;100.00
45255;BME280;30989;52.078;21.014;2023-04-01T01:43:43;165798.97;;;7.81;100.00
45255;BME280;30989;52.078;21.014;2023-04-01T01:46:17;165801.63;;;7.82;100.00
45255;BME280;30989;52.078;21.014;2023-04-01T01:48:45;165789.59;;;7.77;100.00
45255;BME280;30989;52.078;21.014;2023-04-01T01:51:12;165805.63;;;7.83;100.00
45255;BME280;30989;52.078;21.014;2023-04-01T01:53:37;165824.38;;;7.90;100.00
45255;BME280;30989;52.078;21.014;2023-04-01T01:56:04;165816.34;;;7.87;100.00
45255;BME280;30989;52.078;21.014;2023-04-01T01:58:38;165840.41;;;7.96;100.00
45255;BME280;30989;52.078;21.014;2023-04-01T02:01:14;165841.75;;;7.97;100.00
45255;BME280;30989;52.078;21.014;2023-04-01T02:03:44;165843.06;;;7.97;100.00
45255;BME280;30989;52.078;21.014;2023-04-01T02:06:14;165843.06;;;7.97;100.00
45255;BME280;30989;52.078;21.014;2023-04-01T02:08:45;165849.75;;;8.00;100.00
45255;BME280;30989;52.078;21.014;2023-04-01T02:11:15;165848.44;;;7.99;100.00
45255;BME280;30989;52.078;21.014;2023-04-01T02:13:54;165848.44;;;7.99;100.00
45255;BME280;30989;52.078;21.014;2023-04-01T02:16:27;165845.75;;;7.98;100.00
45255;BME280;30989;52.078;21.014;2023-04-01T02:18:55;165840.41;;;7.96;100.00
45255;BME280;30989;52.078;21.014;2023-04-01T02:21:23;165825.69;;;7.91;100.00
45255;BME280;30989;52.078;21.014;2023-04-01T02:23:52;165816.34;;;7.87;100.00
45255;BME280;30989;52.078;21.014;2023-04-01T02:26:19;165821.69;;;7.89;100.00
45255;BME280;30989;52.078;21.014;2023-04-01T02:28:46;165808.31;;;7.84;100.00
45255;BME280;30989;52.078;21.014;2023-04-01T02:31:14;165801.63;;;7.82;100.00
45255;BME280;30989;52.078;21.014;2023-04-01T02:33:41;165772.22;;;7.70;100.00
45255;BME280;30989;52.078;21.014;2023-04-01T02:36:12;165761.53;;;7.66;100.00
45255;BME280;30989;52.078;21.014;2023-04-01T02:38:38;165741.47;;;7.59;100.00
45255;BME280;30989;52.078;21.014;2023-04-01T02:41:04;165726.78;;;7.53;100.00
45255;BME280;30989;52.078;21.014;2023-04-01T02:43:31;165709.38;;;7.47;100.00
45255;BME280;30989;52.078;21.014;2023-04-01T02:45:57;165701.38;;;7.43;100.00
45255;BME280;30989;52.078;21.014;2023-04-01T02:48:22;165680.00;;;7.35;100.00
45255;BME280;30989;52.078;21.014;2023-04-01T02:50:48;165671.97;;;7.32;100.00
45255;BME280;30989;52.078;21.014;2023-04-01T02:53:13;165663.94;;;7.29;100.00
45255;BME280;30989;52.078;21.014;2023-04-01T02:55:39;165658.59;;;7.27;100.00
45255;BME280;30989;52.078;21.014;2023-04-01T02:58:04;165643.91;;;7.22;100.00
45255;BME280;30989;52.078;21.014;2023-04-01T03:00:31;165623.84;;;7.14;100.00
45255;BME280;30989;52.078;21.014;2023-04-01T03:02:56;165618.50;;;7.12;100.00
45255;BME280;30989;52.078;21.014;2023-04-01T03:05:22;165599.81;;;7.05;100.00
45255;BME280;30989;52.078;21.014;2023-04-01T03:07:48;165581.09;;;6.98;100.00
45255;BME280;30989;52.078;21.014;2023-04-01T03:10:14;165567.72;;;6.93;100.00
45255;BME280;30989;52.078;21.014;2023-04-01T03:12:40;165563.72;;;6.91;100.00
45255;BME280;30989;52.078;21.014;2023-04-01T03:15:06;165563.72;;;6.91;100.00
45255;BME280;30989;52.078;21.014;2023-04-01T03:17:32;165565.06;;;6.92;100.00
45255;BME280;30989;52.078;21.014;2023-04-01T03:19:57;165555.72;;;6.88;100.00
45255;BME280;30989;52.078;21.014;2023-04-01T03:22:23;165567.72;;;6.93;100.00
45255;BME280;30989;52.078;21.014;2023-04-01T03:24:49;165565.06;;;6.92;100.00
45255;BME280;30989;52.078;21.014;2023-04-01T03:27:15;165557.03;;;6.89;100.00
45255;BME280;30989;52.078;21.014;2023-04-01T03:29:41;165519.63;;;6.74;100.00
45255;BME280;30989;52.078;21.014;2023-04-01T03:32:07;165546.34;;;6.85;100.00
45255;BME280;30989;52.078;21.014;2023-04-01T03:34:33;165520.97;;;6.75;100.00
45255;BME280;30989;52.078;21.014;2023-04-01T03:36:58;165535.66;;;6.81;100.00
45255;BME280;30989;52.078;21.014;2023-04-01T03:39:24;165529.00;;;6.78;100.00
45255;BME280;30989;52.078;21.014;2023-04-01T03:41:50;165527.66;;;6.77;100.00
45255;BME280;30989;52.078;21.014;2023-04-01T03:44:16;165530.31;;;6.78;100.00
45255;BME280;30989;52.078;21.014;2023-04-01T03:46:44;165527.66;;;6.77;100.00
45255;BME280;30989;52.078;21.014;2023-04-01T03:49:10;165539.69;;;6.82;100.00
45255;BME280;30989;52.078;21.014;2023-04-01T03:51:41;165543.69;;;6.84;100.00
45255;BME280;30989;52.078;21.014;2023-04-01T03:54:08;165550.38;;;6.86;100.00
45255;BME280;30989;52.078;21.014;2023-04-01T03:56:34;165543.69;;;6.84;100.00
45255;BME280;30989;52.078;21.014;2023-04-01T03:59:04;165562.38;;;6.91;100.00
45255;BME280;30989;52.078;21.014;2023-04-01T04:01:31;165559.72;;;6.90;100.00
45255;BME280;30989;52.078;21.014;2023-04-01T04:03:57;165562.38;;;6.91;100.00
45255;BME280;30989;52.078;21.014;2023-04-01T04:06:24;165575.75;;;6.96;100.00
45255;BME280;30989;52.078;21.014;2023-04-01T04:08:51;165565.06;;;6.92;100.00
45255;BME280;30989;52.078;21.014;2023-04-01T04:11:17;165578.44;;;6.97;100.00
45255;BME280;30989;52.078;21.014;2023-04-01T04:13:43;165583.78;;;6.99;100.00
45255;BME280;30989;52.078;21.014;2023-04-01T04:16:09;165590.44;;;7.01;100.00
45255;BME280;30989;52.078;21.014;2023-04-01T04:18:38;165602.47;;;7.06;100.00
45255;BME280;30989;52.078;21.014;2023-04-01T04:21:04;165610.50;;;7.09;100.00
45255;BME280;30989;52.078;21.014;2023-04-01T04:23:30;165615.84;;;7.11;100.00
45255;BME280;30989;52.078;21.014;2023-04-01T04:28:26;165622.53;;;7.14;100.00
45255;BME280;30989;52.078;21.014;2023-04-01T04:30:53;165626.53;;;7.15;100.00
45255;BME280;30989;52.078;21.014;2023-04-01T04:33:19;165639.91;;;7.20;100.00
45255;BME280;30989;52.078;21.014;2023-04-01T04:35:45;165642.56;;;7.21;100.00
45255;BME280;30989;52.078;21.014;2023-04-01T04:38:10;165642.56;;;7.21;100.00
45255;BME280;30989;52.078;21.014;2023-04-01T04:40:42;165639.91;;;7.20;100.00
45255;BME280;30989;52.078;21.014;2023-04-01T04:43:11;165645.25;;;7.22;100.00
45255;BME280;30989;52.078;21.014;2023-04-01T04:45:36;165633.22;;;7.18;100.00
45255;BME280;30989;52.078;21.014;2023-04-01T04:48:02;165634.53;;;7.18;100.00
45255;BME280;30989;52.078;21.014;2023-04-01T04:50:28;165654.59;;;7.26;100.00
45255;BME280;30989;52.078;21.014;2023-04-01T04:52:54;165663.94;;;7.29;100.00
45255;BME280;30989;52.078;21.014;2023-04-01T04:55:21;165677.31;;;7.34;100.00
45255;BME280;30989;52.078;21.014;2023-04-01T04:57:53;165670.63;;;7.32;100.00
45255;BME280;30989;52.078;21.014;2023-04-01T05:00:18;165702.72;;;7.44;100.00
45255;BME280;30989;52.078;21.014;2023-04-01T05:02:52;165700.03;;;7.43;100.00
45255;BME280;30989;52.078;21.014;2023-04-01T05:05:18;165738.81;;;7.58;100.00
45255;BME280;30989;52.078;21.014;2023-04-01T05:07:44;165756.19;;;7.64;100.00
45255;BME280;30989;52.078;21.014;2023-04-01T05:10:09;165798.97;;;7.81;100.00
45255;BME280;30989;52.078;21.014;2023-04-01T05:12:35;165813.66;;;7.86;100.00
45255;BME280;30989;52.078;21.014;2023-04-01T05:15:07;165835.06;;;7.94;100.00
45255;BME280;30989;52.078;21.014;2023-04-01T05:17:33;165860.47;;;8.04;100.00
45255;BME280;30989;52.078;21.014;2023-04-01T05:19:59;165852.44;;;8.01;100.00
45255;BME280;30989;52.078;21.014;2023-04-01T05:22:25;165881.84;;;8.12;100.00
45255;BME280;30989;52.078;21.014;2023-04-01T05:24:51;165896.56;;;8.18;100.00
45255;BME280;30989;52.078;21.014;2023-04-01T05:27:17;165901.91;;;8.20;100.00
45255;BME280;30989;52.078;21.014;2023-04-01T05:29:43;165904.59;;;8.21;100.00
45255;BME280;30989;52.078;21.014;2023-04-01T05:32:24;165917.97;;;8.26;100.00
45255;BME280;30989;52.078;21.014;2023-04-01T05:34:51;165925.97;;;8.29;100.00
45255;BME280;30989;52.078;21.014;2023-04-01T05:37:16;165912.63;;;8.24;100.00
45255;BME280;30989;52.078;21.014;2023-04-01T05:39:42;165934.00;;;8.32;100.00
45255;BME280;30989;52.078;21.014;2023-04-01T05:42:08;165923.31;;;8.28;100.00
45255;BME280;30989;52.078;21.014;2023-04-01T05:44:35;165934.00;;;8.32;100.00
45255;BME280;30989;52.078;21.014;2023-04-01T05:47:01;165936.75;;;8.33;100.00
45255;BME280;30989;52.078;21.014;2023-04-01T05:49:26;165928.66;;;8.30;100.00
45255;BME280;30989;52.078;21.014;2023-04-01T05:51:52;165939.41;;;8.34;100.00
45255;BME280;30989;52.078;21.014;2023-04-01T05:54:18;165951.44;;;8.38;100.00
45255;BME280;30989;52.078;21.014;2023-04-01T05:56:44;165960.81;;;8.42;100.00
45255;BME280;30989;52.078;21.014;2023-04-01T05:59:11;165971.50;;;8.46;100.00
45255;BME280;30989;52.078;21.014;2023-04-01T06:01:37;165990.25;;;8.53;100.00
45255;BME280;30989;52.078;21.014;2023-04-01T06:04:02;166003.59;;;8.58;100.00
45255;BME280;30989;52.078;21.014;2023-04-01T06:06:29;166019.66;;;8.64;100.00
45255;BME280;30989;52.078;21.014;2023-04-01T06:09:12;166030.38;;;8.68;100.00
45255;BME280;30989;52.078;21.014;2023-04-01T06:11:55;166051.78;;;8.77;100.00
45255;BME280;30989;52.078;21.014;2023-04-01T06:22:19;166097.25;;;8.94;100.00
45255;BME280;30989;52.078;21.014;2023-04-01T06:30:38;166105.28;;;8.97;100.00
45255;BME280;30989;52.078;21.014;2023-04-01T06:44:32;166161.47;;;9.18;100.00
45255;BME280;30989;52.078;21.014;2023-04-01T06:56:28;166223.03;;;9.42;100.00
45255;BME280;30989;52.078;21.014;2023-04-01T06:59:09;166229.72;;;9.44;100.00
45255;BME280;30989;52.078;21.014;2023-04-01T07:01:41;166239.09;;;9.48;100.00
45255;BME280;30989;52.078;21.014;2023-04-01T07:04:18;166243.13;;;9.49;100.00
45255;BME280;30989;52.078;21.014;2023-04-01T07:06:52;166233.75;;;9.46;100.00
45255;BME280;30989;52.078;21.014;2023-04-01T07:09:21;166228.38;;;9.44;100.00
45255;BME280;30989;52.078;21.014;2023-04-01T07:12:12;166215.00;;;9.38;100.00
45255;BME280;30989;52.078;21.014;2023-04-01T07:15:05;166205.63;;;9.35;100.00
45255;BME280;30989;52.078;21.014;2023-04-01T07:17:39;166192.25;;;9.30;100.00
45255;BME280;30989;52.078;21.014;2023-04-01T07:20:28;166201.63;;;9.33;100.00
45255;BME280;30989;52.078;21.014;2023-04-01T07:22:58;166196.28;;;9.31;100.00
45255;BME280;30989;52.078;21.014;2023-04-01T07:25:37;166197.63;;;9.32;100.00
45255;BME280;30989;52.078;21.014;2023-04-01T07:28:32;166215.00;;;9.38;100.00
45255;BME280;30989;52.078;21.014;2023-04-01T07:31:49;166249.81;;;9.52;100.00
45255;BME280;30989;52.078;21.014;2023-04-01T07:45:36;166461.38;;;10.32;100.00
45255;BME280;30989;52.078;21.014;2023-04-01T07:48:23;166474.78;;;10.37;100.00
45255;BME280;30989;52.078;21.014;2023-04-01T07:51:00;166462.72;;;10.32;100.00
45255;BME280;30989;52.078;21.014;2023-04-01T08:07:18;166311.38;;;9.75;100.00
45255;BME280;30989;52.078;21.014;2023-04-01T08:10:22;166303.34;;;9.72;100.00
45255;BME280;30989;52.078;21.014;2023-04-01T08:22:27;166316.72;;;9.77;100.00
45255;BME280;30989;52.078;21.014;2023-04-01T08:25:01;166342.16;;;9.87;100.00
45255;BME280;30989;52.078;21.014;2023-04-01T08:27:34;166348.88;;;9.89;100.00
45255;BME280;30989;52.078;21.014;2023-04-01T08:30:25;166356.91;;;9.92;100.00
45255;BME280;30989;52.078;21.014;2023-04-01T08:33:57;166354.22;;;9.91;100.00
45255;BME280;30989;52.078;21.014;2023-04-01T08:38:52;166426.53;;;10.19;100.00
45255;BME280;30989;52.078;21.014;2023-04-01T08:47:52;166525.72;;;10.56;100.00
45255;BME280;30989;52.078;21.014;2023-04-01T08:50:35;166576.63;;;10.76;100.00
45255;BME280;30989;52.078;21.014;2023-04-01T09:03:10;166827.19;;;11.71;100.00
45255;BME280;30989;52.078;21.014;2023-04-01T09:11:31;166836.56;;;11.74;100.00
45255;BME280;30989;52.078;21.014;2023-04-01T09:17:57;166665.03;;;11.09;100.00
45255;BME280;30989;52.078;21.014;2023-04-01T09:20:47;166602.06;;;10.85;100.00
45255;BME280;30989;52.078;21.014;2023-04-01T09:28:58;166466.75;;;10.34;100.00
45255;BME280;30989;52.078;21.014;2023-04-01T09:43:01;166449.34;;;10.27;100.00
45255;BME280;30989;52.078;21.014;2023-04-01T09:45:58;166421.16;;;10.17;100.00
45255;BME280;30989;52.078;21.014;2023-04-01T09:48:37;166390.38;;;10.05;100.00
45255;BME280;30989;52.078;21.014;2023-04-01T09:56:45;166327.44;;;9.81;100.00
45255;BME280;30989;52.078;21.014;2023-04-01T10:08:47;166172.19;;;9.22;100.00
45255;BME280;30989;52.078;21.014;2023-04-01T10:28:36;166142.75;;;9.11;100.00
45255;BME280;30989;52.078;21.014;2023-04-01T10:40:24;166243.13;;;9.49;100.00
45255;BME280;30989;52.078;21.014;2023-04-01T10:43:41;166280.59;;;9.63;100.00
45255;BME280;30989;52.078;21.014;2023-04-01T10:52:11;166335.47;;;9.84;100.00
45255;BME280;30989;52.078;21.014;2023-04-01T10:58:08;166445.31;;;10.26;100.00
45255;BME280;30989;52.078;21.014;2023-04-01T11:08:03;166555.19;;;10.68;100.00
45255;BME280;30989;52.078;21.014;2023-04-01T11:30:16;166335.47;;;9.84;100.00
45255;BME280;30989;52.078;21.014;2023-04-01T11:33:05;166319.41;;;9.78;100.00
45255;BME280;30989;52.078;21.014;2023-04-01T11:36:04;166316.72;;;9.77;100.00
45255;BME280;30989;52.078;21.014;2023-04-01T11:41:51;166356.91;;;9.92;100.00
45255;BME280;30989;52.078;21.014;2023-04-01T11:47:52;166425.19;;;10.18;100.00
45255;BME280;30989;52.078;21.014;2023-04-01T11:55:38;166492.25;;;10.44;100.00
45255;BME280;30989;52.078;21.014;2023-04-01T12:09:04;166517.69;;;10.53;100.00
45255;BME280;30989;52.078;21.014;2023-04-01T12:14:32;166488.22;;;10.42;100.00
45255;BME280;30989;52.078;21.014;2023-04-01T12:19:56;166540.44;;;10.62;100.00
45255;BME280;30989;52.078;21.014;2023-04-01T12:30:48;166494.91;;;10.45;100.00
45255;BME280;30989;52.078;21.014;2023-04-01T12:33:48;166485.53;;;10.41;100.00
45255;BME280;30989;52.078;21.014;2023-04-01T12:36:37;166493.56;;;10.44;100.00
45255;BME280;30989;52.078;21.014;2023-04-01T12:39:37;166511.00;;;10.51;100.00
45255;BME280;30989;52.078;21.014;2023-04-01T13:01:52;167110.13;;;12.78;100.00
45255;BME280;30989;52.078;21.014;2023-04-01T13:07:02;167053.78;;;12.56;100.00
45255;BME280;30989;52.078;21.014;2023-04-01T13:12:40;166954.56;;;12.19;100.00
45255;BME280;30989;52.078;21.014;2023-04-01T13:21:15;166856.72;;;11.82;100.00
45255;BME280;30989;52.078;21.014;2023-04-01T13:24:06;166791.00;;;11.57;100.00
45255;BME280;30989;52.078;21.014;2023-04-01T13:26:56;166777.59;;;11.52;100.00
45255;BME280;30989;52.078;21.014;2023-04-01T13:29:43;166792.31;;;11.57;100.00
45255;BME280;30989;52.078;21.014;2023-04-01T13:32:13;166796.34;;;11.59;100.00
45255;BME280;30989;52.078;21.014;2023-04-01T13:35:08;166801.72;;;11.61;100.00
45255;BME280;30989;52.078;21.014;2023-04-01T13:37:58;166831.19;;;11.72;100.00
45255;BME280;30989;52.078;21.014;2023-04-01T13:48:28;167375.81;;;13.78;100.00
45255;BME280;30989;52.078;21.014;2023-04-01T13:51:26;167544.97;;;14.42;100.00
45255;BME280;30989;52.078;21.014;2023-04-01T13:54:41;167700.72;;;15.01;100.00
45255;BME280;30989;52.078;21.014;2023-04-01T13:57:17;167840.44;;;15.54;99.44
45255;BME280;30989;52.078;21.014;2023-04-01T14:00:16;167919.78;;;15.84;97.90
45255;BME280;30989;52.078;21.014;2023-04-01T14:02:53;167872.78;;;15.66;95.48
45255;BME280;30989;52.078;21.014;2023-04-01T14:13:31;167288.59;;;13.45;98.37
45255;BME280;30989;52.078;21.014;2023-04-01T14:21:49;166878.16;;;11.90;100.00
45255;BME280;30989;52.078;21.014;2023-04-01T14:30:00;166669.06;;;11.11;100.00
45255;BME280;30989;52.078;21.014;2023-04-01T14:32:49;166626.19;;;10.94;100.00
45255;BME280;30989;52.078;21.014;2023-04-01T14:35:37;166603.41;;;10.86;100.00
45255;BME280;30989;52.078;21.014;2023-04-01T14:38:42;166560.53;;;10.70;100.00
45255;BME280;30989;52.078;21.014;2023-04-01T14:49:37;166450.69;;;10.28;100.00
45255;BME280;30989;52.078;21.014;2023-04-01T14:52:35;166437.28;;;10.23;100.00
45255;BME280;30989;52.078;21.014;2023-04-01T14:55:18;166425.19;;;10.18;100.00
45255;BME280;30989;52.078;21.014;2023-04-01T14:58:07;166414.47;;;10.14;100.00
45255;BME280;30989;52.078;21.014;2023-04-01T15:01:07;166426.53;;;10.19;100.00
45255;BME280;30989;52.078;21.014;2023-04-01T15:03:58;166421.16;;;10.17;100.00
45255;BME280;30989;52.078;21.014;2023-04-01T15:07:03;166423.84;;;10.18;100.00
45255;BME280;30989;52.078;21.014;2023-04-01T15:10:05;166401.06;;;10.09;100.00
45255;BME280;30989;52.078;21.014;2023-04-01T15:13:12;166394.38;;;10.07;100.00
45255;BME280;30989;52.078;21.014;2023-04-01T15:21:31;166332.81;;;9.83;100.00
45255;BME280;30989;52.078;21.014;2023-04-01T15:24:21;166324.78;;;9.80;100.00
45255;BME280;30989;52.078;21.014;2023-04-01T15:41:16;166284.59;;;9.65;100.00
45255;BME280;30989;52.078;21.014;2023-04-01T15:43:44;166283.28;;;9.64;100.00
45255;BME280;30989;52.078;21.014;2023-04-01T15:46:29;166265.88;;;9.58;100.00
45255;BME280;30989;52.078;21.014;2023-04-01T16:00:18;166161.47;;;9.18;100.00
45255;BME280;30989;52.078;21.014;2023-04-01T16:08:16;166118.66;;;9.02;100.00
45255;BME280;30989;52.078;21.014;2023-04-01T16:11:25;166097.25;;;8.94;100.00
45255;BME280;30989;52.078;21.014;2023-04-01T16:14:11;166101.28;;;8.95;100.00
45255;BME280;30989;52.078;21.014;2023-04-01T16:19:56;166073.19;;;8.85;100.00
45255;BME280;30989;52.078;21.014;2023-04-01T16:22:35;166081.19;;;8.88;100.00
45255;BME280;30989;52.078;21.014;2023-04-01T16:30:55;166079.88;;;8.87;100.00
45255;BME280;30989;52.078;21.014;2023-04-01T16:35:58;166062.47;;;8.81;100.00
45255;BME280;30989;52.078;21.014;2023-04-01T16:38:33;166059.78;;;8.80;100.00
45255;BME280;30989;52.078;21.014;2023-04-01T16:41:17;166059.78;;;8.80;100.00
45255;BME280;30989;52.078;21.014;2023-04-01T16:43:48;166046.41;;;8.75;100.00
45255;BME280;30989;52.078;21.014;2023-04-01T16:49:23;166051.78;;;8.77;100.00
45255;BME280;30989;52.078;21.014;2023-04-01T16:51:59;166046.41;;;8.75;100.00
45255;BME280;30989;52.078;21.014;2023-04-01T16:54:45;166051.78;;;8.77;100.00
45255;BME280;30989;52.078;21.014;2023-04-01T16:57:25;166046.41;;;8.75;100.00
45255;BME280;30989;52.078;21.014;2023-04-01T17:00:14;166026.34;;;8.67;100.00
45255;BME280;30989;52.078;21.014;2023-04-01T17:03:08;166033.03;;;8.69;100.00
45255;BME280;30989;52.078;21.014;2023-04-01T17:05:49;166025.00;;;8.66;100.00
45255;BME280;30989;52.078;21.014;2023-04-01T17:10:52;165987.56;;;8.52;100.00
45255;BME280;30989;52.078;21.014;2023-04-01T17:13:40;165978.19;;;8.49;100.00
45255;BME280;30989;52.078;21.014;2023-04-01T17:16:17;165966.16;;;8.44;100.00
45255;BME280;30989;52.078;21.014;2023-04-01T17:27:30;165899.25;;;8.19;100.00
45255;BME280;30989;52.078;21.014;2023-04-01T17:30:12;165891.22;;;8.16;100.00
45255;BME280;30989;52.078;21.014;2023-04-01T17:36:08;165880.50;;;8.12;100.00
45255;BME280;30989;52.078;21.014;2023-04-01T17:41:36;165873.84;;;8.09;100.00
45255;BME280;30989;52.078;21.014;2023-04-01T17:49:37;165872.50;;;8.08;100.00
45255;BME280;30989;52.078;21.014;2023-04-01T17:52:44;165872.50;;;8.08;100.00
45255;BME280;30989;52.078;21.014;2023-04-01T17:55:31;165875.16;;;8.09;100.00
45255;BME280;30989;52.078;21.014;2023-04-01T17:58:21;165877.84;;;8.11;100.00
45255;BME280;30989;52.078;21.014;2023-04-01T18:06:26;165888.53;;;8.15;100.00
45255;BME280;30989;52.078;21.014;2023-04-01T18:14:23;165883.19;;;8.13;100.00
45255;BME280;30989;52.078;21.014;2023-04-01T18:20:00;165879.19;;;8.11;100.00
45255;BME280;30989;52.078;21.014;2023-04-01T18:22:43;165880.50;;;8.12;100.00
45255;BME280;30989;52.078;21.014;2023-04-01T18:25:15;165880.50;;;8.12;100.00
45255;BME280;30989;52.078;21.014;2023-04-01T18:27:45;165872.50;;;8.08;100.00
45255;BME280;30989;52.078;21.014;2023-04-01T18:30:20;165879.19;;;8.11;100.00
45255;BME280;30989;52.078;21.014;2023-04-01T18:35:52;165888.53;;;8.15;100.00
45255;BME280;30989;52.078;21.014;2023-04-01T18:38:31;165896.56;;;8.18;100.00
45255;BME280;30989;52.078;21.014;2023-04-01T18:41:18;165903.25;;;8.20;100.00
45255;BME280;30989;52.078;21.014;2023-04-01T18:47:03;165895.22;;;8.17;100.00
45255;BME280;30989;52.078;21.014;2023-04-01T18:49:43;165895.22;;;8.17;100.00
45255;BME280;30989;52.078;21.014;2023-04-01T18:52:28;165899.25;;;8.19;100.00
45255;BME280;30989;52.078;21.014;2023-04-01T18:57:27;165888.53;;;8.15;100.00
45255;BME280;30989;52.078;21.014;2023-04-01T19:00:26;165864.47;;;8.05;100.00
45255;BME280;30989;52.078;21.014;2023-04-01T19:03:16;165863.13;;;8.05;100.00
45255;BME280;30989;52.078;21.014;2023-04-01T19:05:45;165848.44;;;7.99;100.00
45255;BME280;30989;52.078;21.014;2023-04-01T19:08:26;165849.75;;;8.00;100.00
45255;BME280;30989;52.078;21.014;2023-04-01T19:11:22;165840.41;;;7.96;100.00
45255;BME280;30989;52.078;21.014;2023-04-01T19:19:34;165829.72;;;7.92;100.00
45255;BME280;30989;52.078;21.014;2023-04-01T19:27:42;165812.31;;;7.86;100.00
45255;BME280;30989;52.078;21.014;2023-04-01T19:33:29;165800.28;;;7.81;100.00
45255;BME280;30989;52.078;21.014;2023-04-01T19:36:11;165786.94;;;7.76;100.00
45255;BME280;30989;52.078;21.014;2023-04-01T19:41:48;165774.88;;;7.71;100.00
45255;BME280;30989;52.078;21.014;2023-04-01T19:46:55;165749.50;;;7.62;100.00
45255;BME280;30989;52.078;21.014;2023-04-01T19:49:36;165741.47;;;7.59;100.00
45255;BME280;30989;52.078;21.014;2023-04-01T19:55:06;165725.44;;;7.53;100.00
45255;BME280;30989;52.078;21.014;2023-04-01T19:57:47;165720.09;;;7.51;100.00
45255;BME280;30989;52.078;21.014;2023-04-01T20:08:11;165712.06;;;7.48;100.00
45255;BME280;30989;52.078;21.014;2023-04-01T20:16:07;165714.75;;;7.49;100.00
45255;BME280;30989;52.078;21.014;2023-04-01T20:18:39;165704.06;;;7.44;100.00
45255;BME280;30989;52.078;21.014;2023-04-01T20:21:19;165701.38;;;7.43;100.00
45255;BME280;30989;52.078;21.014;2023-04-01T20:26:50;165686.69;;;7.38;100.00
45255;BME280;30989;52.078;21.014;2023-04-01T20:46:19;165647.91;;;7.23;100.00
45255;BME280;30989;52.078;21.014;2023-04-01T20:48:58;165639.91;;;7.20;100.00
45255;BME280;30989;52.078;21.014;2023-04-01T20:51:31;165631.88;;;7.17;100.00
45255;BME280;30989;52.078;21.014;2023-04-01T20:59:35;165625.19;;;7.15;100.00
45255;BME280;30989;52.078;21.014;2023-04-01T21:08:29;165607.81;;;7.08;100.00
45255;BME280;30989;52.078;21.014;2023-04-01T21:13:44;165589.13;;;7.01;100.00
45255;BME280;30989;52.078;21.014;2023-04-01T21:19:08;165574.41;;;6.95;100.00
45255;BME280;30989;52.078;21.014;2023-04-01T21:30:04;165559.72;;;6.90;100.00
45255;BME280;30989;52.078;21.014;2023-04-01T21:33:01;165551.69;;;6.87;100.00